FWCO2: Wolf Creek nr Ft. Supply 9S

Data processed at Thu Jan 04 2018 23:08


All information presented herein is the property of the government of the United States of America and may be revised or deleted at any time without prior notice.
Dissemination of this information without the expressed written consent of the Public Affairs Office, Tulsa District U.S. Army Corps of Engineers is strictly prohibited.
These data are gathered electronically and, as presented, have not undergone any form of quality control. These data are not guaranteed to be valid or correct.
Go to home page.
Go to station list.

Upstream stations:

Downstream station:
Previous Day
Next Day
Current Day
    
SHEF ID:       FWCO2     Wolf Creek nr Ft. Supply 9S
STATION TYPE:  

               PRECIP     STAGE  RIV-FLOW   VOLTAGE
                   in        ft       cfs      volt
              Ccp-Rev   Ccp-Rev   Ccp-Rev   Ccp-Rev
(US/Central)
01/02 00:00      0.00      7.30       266     12.80
01/02 01:00      0.00      7.29       259     12.80
01/02 02:00      0.00      7.28       252     12.80
01/02 03:00      0.00      7.27       246     12.80
01/02 04:00      0.00      7.25       232     12.80
01/02 05:00      0.00      7.23       218     12.80
01/02 06:00      0.00      7.25       232     12.80
01/02 07:00      0.00      7.28       252     12.70
01/02 08:00      0.00      7.29       259     12.70
01/02 09:00      0.00      7.30       266     12.70
01/02 10:00      0.00      7.32       280     13.40
01/02 11:00      0.00      7.29       259     14.20
01/02 12:00      0.00      7.27       246     14.20
01/02 13:00      0.00      7.30       266     15.10
01/02 14:00      0.00      7.36       307     15.00
01/02 15:00      0.00      7.39       328     15.00
01/02 16:00      0.00      7.44       362     15.00
01/02 17:00      0.00      7.44       362     14.30
01/02 18:00      ----      ----      ----      ----
01/02 19:00      ----      7.40       334     13.10
01/02 20:00      0.00      7.40       334     13.00
01/02 21:00      0.00      7.39       328     13.00
01/02 22:00      0.00      7.39       328     12.90
01/02 23:00      0.00      7.37       314     12.90